createdAt,value
2019-01-03T00:02:27.670Z,52.10
2019-01-03T00:05:48.888Z,52.10
2019-01-03T00:09:16.508Z,52.10
2019-01-03T00:12:29.988Z,52.20
2019-01-03T00:15:40.351Z,52.20
2019-01-03T00:18:50.538Z,52.40
2019-01-03T00:22:02.308Z,52.30
2019-01-03T00:25:17.190Z,52.40
2019-01-03T00:28:27.435Z,52.40
2019-01-03T00:31:48.761Z,52.40
2019-01-03T00:35:05.002Z,52.30
2019-01-03T00:38:29.145Z,52.40
2019-01-03T00:41:55.906Z,52.30
2019-01-03T00:45:18.747Z,52.40
2019-01-03T00:48:33.615Z,52.40
2019-01-03T00:51:44.282Z,52.40
2019-01-03T00:55:07.841Z,52.40
2019-01-03T00:58:25.490Z,52.40
2019-01-03T01:01:40.973Z,52.40
2019-01-03T01:05:11.099Z,52.30
2019-01-03T01:08:23.406Z,52.20
2019-01-03T01:11:47.391Z,52.40
2019-01-03T01:15:14.649Z,52.30
2019-01-03T01:18:27.493Z,52.70
2019-01-03T01:21:50.951Z,52.70
2019-01-03T01:24:59.279Z,52.80
2019-01-03T01:28:30.200Z,52.90
2019-01-03T01:31:41.829Z,52.70
2019-01-03T01:34:56.970Z,52.60
2019-01-03T01:38:11.517Z,52.60
2019-01-03T01:41:35.613Z,52.10
2019-01-03T01:45:02.892Z,52.30
2019-01-03T01:48:26.662Z,52.30
2019-01-03T01:51:45.006Z,52.20
2019-01-03T01:54:57.294Z,52.10
2019-01-03T01:58:13.524Z,52.10
2019-01-03T02:01:28.789Z,52.10
2019-01-03T02:04:49.334Z,52.30
2019-01-03T02:08:18.883Z,52.00
2019-01-03T02:11:39.013Z,52.00
2019-01-03T02:14:56.886Z,52.00
2019-01-03T02:18:17.597Z,52.10
2019-01-03T02:21:41.834Z,52.10
2019-01-03T02:24:52.817Z,52.10
2019-01-03T02:28:13.926Z,51.90
2019-01-03T02:31:31.789Z,52.10
2019-01-03T02:34:42.121Z,52.10
2019-01-03T02:38:00.470Z,52.10
2019-01-03T02:41:11.859Z,52.20
2019-01-03T02:44:19.003Z,52.30
2019-01-03T02:47:29.714Z,52.20
2019-01-03T02:50:54.383Z,52.10
2019-01-03T02:54:13.083Z,52.30
2019-01-03T02:57:23.464Z,52.30
2019-01-03T03:00:33.795Z,52.20
2019-01-03T03:03:42.629Z,52.10
2019-01-03T03:07:07.017Z,52.20
2019-01-03T03:10:17.805Z,52.50
2019-01-03T03:13:45.766Z,52.40
2019-01-03T03:16:57.360Z,52.50
2019-01-03T03:20:01.516Z,52.40
2019-01-03T03:23:16.852Z,52.50
2019-01-03T03:26:28.239Z,52.50
2019-01-03T03:29:40.764Z,52.40
2019-01-03T03:32:52.278Z,52.40
2019-01-03T03:36:13.368Z,52.50
2019-01-03T03:39:37.550Z,52.70
2019-01-03T03:43:02.325Z,52.70
2019-01-03T03:46:22.748Z,52.60
2019-01-03T03:49:38.041Z,52.50
2019-01-03T03:52:49.951Z,52.60
2019-01-03T03:56:04.622Z,52.70
2019-01-03T03:59:25.320Z,52.70
2019-01-03T04:02:36.293Z,52.60
2019-01-03T04:06:07.569Z,52.70
2019-01-03T04:09:30.093Z,52.30
2019-01-03T04:12:44.495Z,52.40
2019-01-03T04:15:57.467Z,52.20
2019-01-03T04:19:09.262Z,52.10
2019-01-03T04:22:22.182Z,52.10
2019-01-03T04:25:37.863Z,51.90
2019-01-03T04:28:59.096Z,54.80
2019-01-03T04:32:13.353Z,60.60
2019-01-03T04:44:03.813Z,58.70
2019-01-03T04:46:50.216Z,57.10
2019-01-03T04:57:41.156Z,55.00
2019-01-03T05:00:26.602Z,62.60
2019-01-03T05:04:42.825Z,54.50
2019-01-03T05:07:57.392Z,54.20
2019-01-03T05:11:09.126Z,54.10
2019-01-03T05:14:28.261Z,54.00
2019-01-03T05:17:40.984Z,53.80
2019-01-03T05:21:09.291Z,53.70
2019-01-03T05:25:05.239Z,53.70
2019-01-03T05:31:45.726Z,53.30
2019-01-03T05:38:28.651Z,53.30
2019-01-03T05:38:49.958Z,53.30
2019-01-03T05:42:02.782Z,53.20
2019-01-03T05:48:49.774Z,53.40
2019-01-03T05:52:08.204Z,53.70
2019-01-03T05:59:24.590Z,53.90
2019-01-03T06:02:46.298Z,54.10
2019-01-03T06:06:05.271Z,54.20
2019-01-03T06:09:17.203Z,54.10
2019-01-03T06:12:37.854Z,54.10
2019-01-03T06:15:56.154Z,53.90
2019-01-03T06:19:07.381Z,53.90
2019-01-03T06:22:32.118Z,53.90
2019-01-03T06:25:46.977Z,54.10
2019-01-03T06:29:02.467Z,53.90
2019-01-03T06:32:34.122Z,53.80
2019-01-03T06:35:49.507Z,53.80
2019-01-03T06:39:02.850Z,53.80
2019-01-03T06:42:15.287Z,53.80
2019-01-03T06:45:27.876Z,53.80
2019-01-03T06:48:45.939Z,53.70
2019-01-03T06:51:53.185Z,53.40
2019-01-03T06:55:05.590Z,53.60
2019-01-03T06:58:30.569Z,53.70
2019-01-03T07:01:50.425Z,53.80
2019-01-03T07:09:44.045Z,53.80
2019-01-03T07:13:31.894Z,53.70
2019-01-03T07:20:20.488Z,53.80
2019-01-03T07:23:48.001Z,53.90
2019-01-03T07:27:13.205Z,54.00
2019-01-03T07:30:32.883Z,54.00
2019-01-03T07:33:47.994Z,53.90
2019-01-03T07:37:17.931Z,53.80
2019-01-03T07:40:28.560Z,53.60
2019-01-03T07:43:55.314Z,53.60
2019-01-03T07:47:03.914Z,53.60
2019-01-03T07:50:22.284Z,53.40
2019-01-03T08:12:10.964Z,53.20
2019-01-03T09:56:47.189Z,53.40
2019-01-03T10:13:21.688Z,53.50
2019-01-03T10:16:16.422Z,53.50
2019-01-03T10:19:18.213Z,53.50
2019-01-03T10:23:01.594Z,53.50
2019-01-03T10:27:29.572Z,53.60
2019-01-03T10:30:13.631Z,53.80
2019-01-03T10:33:08.392Z,53.70
2019-01-03T10:36:03.437Z,53.80
2019-01-03T10:39:47.222Z,53.80
2019-01-03T10:55:21.370Z,54.00
2019-01-03T11:02:19.649Z,53.00
2019-01-03T11:05:23.689Z,53.00
2019-01-03T11:11:54.467Z,52.50
2019-01-03T11:16:32.650Z,53.00
2019-01-03T11:19:45.128Z,53.20
2019-01-03T11:22:47.449Z,53.00
2019-01-03T11:26:12.467Z,53.00
2019-01-03T11:33:16.610Z,52.90
2019-01-03T11:36:35.819Z,52.80
2019-01-03T11:39:38.174Z,53.00
2019-01-03T11:43:18.845Z,53.00
2019-01-03T11:46:14.711Z,53.00
2019-01-03T11:49:21.555Z,52.90
2019-01-03T11:52:16.030Z,52.90
2019-01-03T11:55:10.199Z,52.80
2019-01-03T11:58:07.753Z,52.80
2019-01-03T12:00:59.663Z,52.70
2019-01-03T12:04:06.481Z,52.80
2019-01-03T12:07:02.509Z,52.90
2019-01-03T12:09:59.799Z,53.00
2019-01-03T12:13:15.430Z,53.10
2019-01-03T12:19:24.123Z,53.00
2019-01-03T12:26:48.294Z,53.10
2019-01-03T12:29:58.318Z,53.00
2019-01-03T12:32:56.046Z,53.10
2019-01-03T12:36:02.717Z,53.10
2019-01-03T12:38:58.162Z,53.10
2019-01-03T12:41:52.406Z,53.20
2019-01-03T12:44:47.531Z,52.70
2019-01-03T12:47:41.290Z,53.20
2019-01-03T12:50:37.620Z,53.20
2019-01-03T12:53:42.071Z,53.10
2019-01-03T12:56:45.962Z,53.20
2019-01-03T12:59:41.587Z,53.10
2019-01-03T13:02:40.611Z,53.20
2019-01-03T13:05:31.593Z,53.10
2019-01-03T13:08:25.329Z,53.20
2019-01-03T13:11:19.636Z,53.20
2019-01-03T13:14:18.029Z,53.20
2019-01-03T13:17:13.978Z,53.20
2019-01-03T13:20:08.445Z,53.10
2019-01-03T13:23:02.833Z,53.10
2019-01-03T13:26:36.552Z,53.10
2019-01-03T13:29:57.858Z,53.10
2019-01-03T13:32:58.129Z,53.10
2019-01-03T13:35:50.014Z,53.20
2019-01-03T13:38:44.094Z,53.10
2019-01-03T13:41:39.401Z,53.10
2019-01-03T13:44:34.113Z,53.20
2019-01-03T13:47:28.281Z,53.10
2019-01-03T13:50:21.948Z,53.20
2019-01-03T13:53:20.231Z,53.20
2019-01-03T13:56:14.830Z,53.20
2019-01-03T13:59:09.327Z,53.20
2019-01-03T14:02:08.106Z,53.10
2019-01-03T14:05:02.725Z,53.60
2019-01-03T14:07:57.204Z,53.00
2019-01-03T14:10:56.057Z,53.10
2019-01-03T14:13:47.547Z,53.10
2019-01-03T14:16:41.921Z,53.10
2019-01-03T14:19:37.407Z,53.10
2019-01-03T14:22:32.126Z,53.10
2019-01-03T14:25:26.286Z,53.10
2019-01-03T14:28:20.800Z,53.20
2019-01-03T14:31:15.529Z,53.20
2019-01-03T14:34:09.908Z,53.10
2019-01-03T14:37:09.008Z,53.10
2019-01-03T14:40:06.590Z,53.00
2019-01-03T14:43:02.788Z,53.00
2019-01-03T14:45:59.810Z,53.10
2019-01-03T14:49:08.572Z,53.10
2019-01-03T14:52:06.003Z,53.10
2019-01-03T14:55:06.964Z,53.00
2019-01-03T14:58:01.704Z,53.00
2019-01-03T15:01:12.548Z,53.10
2019-01-03T15:04:15.821Z,53.10
2019-01-03T15:07:03.107Z,53.10
2019-01-03T15:10:09.442Z,52.90
2019-01-03T15:13:05.141Z,52.70
2019-01-03T15:16:05.205Z,52.80
2019-01-03T15:19:02.628Z,52.90
2019-01-03T15:21:56.379Z,52.90
2019-01-03T15:24:58.555Z,52.90
2019-01-03T15:27:47.830Z,52.90
2019-01-03T15:30:41.587Z,52.80
2019-01-03T15:33:40.389Z,52.80
2019-01-03T15:36:34.867Z,52.90
2019-01-03T15:39:30.377Z,52.80
2019-01-03T15:42:24.763Z,52.70
2019-01-03T15:45:19.262Z,52.80
2019-01-03T15:48:13.397Z,52.80
2019-01-03T15:51:10.802Z,52.80
2019-01-03T15:54:04.581Z,52.80
2019-01-03T15:56:58.569Z,52.80
2019-01-03T15:59:53.755Z,52.70
2019-01-03T16:02:49.277Z,52.70
2019-01-03T16:05:47.821Z,52.60
2019-01-03T16:08:38.979Z,52.60
2019-01-03T16:11:34.407Z,52.80
2019-01-03T16:14:31.640Z,52.70
2019-01-03T16:17:27.217Z,52.80
2019-01-03T16:20:24.518Z,52.80
2019-01-03T16:23:20.309Z,52.80
2019-01-03T16:26:14.849Z,52.80
2019-01-03T16:29:09.115Z,52.80
2019-01-03T16:32:09.899Z,52.80
2019-01-03T16:35:04.209Z,52.60
2019-01-03T16:37:59.873Z,52.30
2019-01-03T16:40:53.743Z,52.30
2019-01-03T16:43:47.823Z,52.30
2019-01-03T16:46:42.646Z,52.10
2019-01-03T16:49:37.003Z,51.60
2019-01-03T16:52:30.783Z,51.40
2019-01-03T16:55:24.951Z,51.50
2019-01-03T16:58:20.363Z,51.60
2019-01-03T17:01:14.351Z,51.50
2019-01-03T17:04:08.622Z,51.60
2019-01-03T17:07:02.755Z,51.80
2019-01-03T17:09:56.713Z,51.60
2019-01-03T17:12:51.594Z,52.20
2019-01-03T17:15:45.823Z,51.90
2019-01-03T17:18:39.449Z,51.90
2019-01-03T17:21:33.743Z,51.90
2019-01-03T17:24:27.813Z,51.70
2019-01-03T17:27:21.704Z,51.70
2019-01-03T17:30:16.292Z,51.90
2019-01-03T17:33:10.719Z,51.80
2019-01-03T17:36:04.718Z,51.90
2019-01-03T17:38:58.854Z,51.90
2019-01-03T17:41:55.059Z,51.80
2019-01-03T17:44:48.442Z,51.90
2019-01-03T17:47:42.622Z,52.20
2019-01-03T17:50:37.075Z,52.20
2019-01-03T17:53:31.401Z,52.00
2019-01-03T17:56:25.284Z,51.90
2019-01-03T17:59:21.841Z,51.90
2019-01-03T18:02:16.091Z,52.00
2019-01-03T18:05:09.979Z,51.90
2019-01-03T18:08:04.373Z,51.80
2019-01-03T18:10:58.300Z,51.80
2019-01-03T18:13:52.268Z,51.90
2019-01-03T18:16:46.917Z,51.90
2019-01-03T18:19:42.163Z,52.10
2019-01-03T18:22:39.092Z,52.00
2019-01-03T18:25:33.521Z,52.10
2019-01-03T18:28:27.853Z,52.00
2019-01-03T18:31:23.359Z,52.00
2019-01-03T18:34:18.183Z,51.80
2019-01-03T18:37:12.750Z,52.00
2019-01-03T18:40:06.929Z,52.30
2019-01-03T18:43:00.786Z,52.20
2019-01-03T18:46:03.499Z,52.20
2019-01-03T18:49:02.665Z,52.40
2019-01-03T18:51:56.614Z,52.60
2019-01-03T18:54:54.165Z,52.60
2019-01-03T18:57:48.350Z,52.50
2019-01-03T19:00:45.598Z,52.40
2019-01-03T19:03:39.680Z,52.50
2019-01-03T19:06:35.790Z,52.70
2019-01-03T19:09:30.410Z,52.80
2019-01-03T19:12:24.023Z,52.80
2019-01-03T19:15:18.133Z,52.50
2019-01-03T19:18:12.315Z,52.70
2019-01-03T19:21:06.912Z,52.80
2019-01-03T19:24:01.408Z,52.80
2019-01-03T19:26:56.235Z,52.90
2019-01-03T19:29:50.471Z,52.90
2019-01-03T19:32:48.767Z,52.70
2019-01-03T19:35:39.559Z,52.80
2019-01-03T19:38:33.552Z,52.80
2019-01-03T19:41:27.426Z,52.90
2019-01-03T19:44:21.736Z,52.70
2019-01-03T19:47:18.654Z,52.60
2019-01-03T19:50:14.948Z,52.70
2019-01-03T19:53:08.579Z,53.00
2019-01-03T19:56:03.057Z,52.90
2019-01-03T19:58:57.850Z,53.00
2019-01-03T20:01:52.131Z,52.90
2019-01-03T20:04:46.007Z,53.10
2019-01-03T20:07:40.191Z,53.60
2019-01-03T20:10:35.386Z,53.10
2019-01-03T20:13:31.462Z,53.10
2019-01-03T20:16:24.892Z,53.10
2019-01-03T20:19:19.388Z,53.10
2019-01-03T20:22:13.585Z,53.10
2019-01-03T20:25:07.862Z,53.10
2019-01-03T20:28:01.848Z,52.90
2019-01-03T20:30:55.633Z,52.90
2019-01-03T20:33:48.874Z,52.80
2019-01-03T20:36:42.581Z,53.00
2019-01-03T20:39:36.346Z,53.00
2019-01-03T20:42:30.909Z,53.00
2019-01-03T20:45:24.879Z,53.00
2019-01-03T20:48:26.676Z,52.80
2019-01-03T20:51:20.632Z,52.90
2019-01-03T20:54:14.515Z,53.00
2019-01-03T20:57:08.376Z,52.70
2019-01-03T21:00:03.385Z,52.80
2019-01-03T21:03:00.404Z,52.80
2019-01-03T21:05:54.447Z,52.90
2019-01-03T21:08:48.836Z,52.80
2019-01-03T21:11:42.692Z,52.80
2019-01-03T21:14:36.453Z,52.80
2019-01-03T21:17:30.633Z,52.80
2019-01-03T21:20:25.341Z,53.00
2019-01-03T21:23:20.034Z,52.90
2019-01-03T21:26:14.619Z,53.10
2019-01-03T21:29:09.320Z,53.00
2019-01-03T21:32:03.600Z,53.00
2019-01-03T21:34:58.085Z,53.10
2019-01-03T21:37:52.375Z,53.00
2019-01-03T21:40:46.661Z,53.10
2019-01-03T21:43:40.341Z,53.20
2019-01-03T21:46:33.913Z,53.40
2019-01-03T21:49:32.403Z,53.40
2019-01-03T21:52:26.979Z,53.40
2019-01-03T21:55:20.985Z,53.60
2019-01-03T21:58:15.350Z,53.50
2019-01-03T22:01:09.544Z,53.60
2019-01-03T22:04:03.731Z,53.70
2019-01-03T22:07:07.419Z,53.70
2019-01-03T22:09:54.899Z,53.80
2019-01-03T22:12:49.155Z,53.70
2019-01-03T22:15:44.242Z,53.70
2019-01-03T22:18:40.578Z,53.70
2019-01-03T22:21:37.217Z,53.70
2019-01-03T22:24:30.696Z,53.80
2019-01-03T22:27:29.067Z,53.90
2019-01-03T22:30:23.563Z,53.80
2019-01-03T22:33:17.635Z,53.90
2019-01-03T22:36:15.112Z,53.80
2019-01-03T22:39:09.800Z,53.80
2019-01-03T22:42:04.485Z,53.70
2019-01-03T22:44:59.001Z,53.80
2019-01-03T22:47:53.775Z,53.90
2019-01-03T22:50:47.879Z,53.50
2019-01-03T22:53:42.249Z,53.40
2019-01-03T22:56:35.991Z,53.50
2019-01-03T22:59:29.597Z,53.50
2019-01-03T23:02:23.700Z,53.30
2019-01-03T23:05:18.163Z,53.40
2019-01-03T23:08:12.885Z,53.30
2019-01-03T23:11:07.245Z,53.10
2019-01-03T23:14:01.565Z,53.70
2019-01-03T23:16:55.612Z,53.10
2019-01-03T23:19:54.124Z,53.20
2019-01-03T23:22:47.797Z,53.00
2019-01-03T23:25:41.861Z,53.30
2019-01-03T23:28:35.939Z,53.40
2019-01-03T23:31:30.225Z,53.20
2019-01-03T23:34:28.128Z,53.30
2019-01-03T23:37:19.199Z,53.10
2019-01-03T23:40:15.030Z,53.50
2019-01-03T23:43:10.435Z,52.80
2019-01-03T23:46:04.512Z,53.20
2019-01-03T23:48:58.590Z,53.10
2019-01-03T23:51:52.377Z,53.10
2019-01-03T23:54:47.075Z,53.00
2019-01-03T23:57:41.562Z,53.00
